sensor_id;sensor_type;location;lat;lon;timestamp;pressure;altitude;pressure_sealevel;temperature;humidity
47883;BME280;37739;50.350;7.578;2023-06-14T00:00:52;99393.25;;;22.01;34.49
47883;BME280;37739;50.350;7.578;2023-06-14T00:03:20;99395.94;;;21.98;34.33
47883;BME280;37739;50.350;7.578;2023-06-14T00:05:47;99394.06;;;22.05;33.99
47883;BME280;37739;50.350;7.578;2023-06-14T00:08:13;99391.59;;;21.97;34.68
47883;BME280;37739;50.350;7.578;2023-06-14T00:10:41;99394.03;;;21.52;34.99
47883;BME280;37739;50.350;7.578;2023-06-14T00:13:11;99386.97;;;21.55;35.07
47883;BME280;37739;50.350;7.578;2023-06-14T00:15:39;99390.28;;;21.67;34.89
47883;BME280;37739;50.350;7.578;2023-06-14T00:18:05;99389.44;;;21.66;34.43
47883;BME280;37739;50.350;7.578;2023-06-14T00:20:33;99392.19;;;21.55;35.15
47883;BME280;37739;50.350;7.578;2023-06-14T00:22:59;99390.59;;;21.47;34.69
47883;BME280;37739;50.350;7.578;2023-06-14T00:25:25;99396.47;;;21.61;34.40
47883;BME280;37739;50.350;7.578;2023-06-14T00:27:51;99396.44;;;21.64;34.65
47883;BME280;37739;50.350;7.578;2023-06-14T00:30:17;99399.28;;;21.47;34.77
47883;BME280;37739;50.350;7.578;2023-06-14T00:32:45;99398.19;;;21.64;34.21
47883;BME280;37739;50.350;7.578;2023-06-14T00:35:10;99400.69;;;21.73;34.22
47883;BME280;37739;50.350;7.578;2023-06-14T00:37:39;99398.06;;;21.73;34.07
47883;BME280;37739;50.350;7.578;2023-06-14T00:40:05;99392.13;;;21.62;33.94
47883;BME280;37739;50.350;7.578;2023-06-14T00:42:31;99390.22;;;21.73;33.86
47883;BME280;37739;50.350;7.578;2023-06-14T00:44:57;99406.75;;;21.73;33.68
47883;BME280;37739;50.350;7.578;2023-06-14T00:47:25;99408.50;;;21.73;33.86
47883;BME280;37739;50.350;7.578;2023-06-14T00:49:57;99403.31;;;21.71;33.83
47883;BME280;37739;50.350;7.578;2023-06-14T00:52:25;99399.91;;;21.63;33.77
47883;BME280;37739;50.350;7.578;2023-06-14T00:54:52;99398.25;;;21.59;34.05
47883;BME280;37739;50.350;7.578;2023-06-14T00:57:19;99402.59;;;21.60;34.00
47883;BME280;37739;50.350;7.578;2023-06-14T00:59:47;99409.63;;;21.53;33.86
47883;BME280;37739;50.350;7.578;2023-06-14T01:02:14;99403.03;;;21.25;34.27
47883;BME280;37739;50.350;7.578;2023-06-14T01:04:47;99402.31;;;21.13;34.47
47883;BME280;37739;50.350;7.578;2023-06-14T01:15:39;99407.25;;;21.35;33.87
47883;BME280;37739;50.350;7.578;2023-06-14T01:18:05;99409.50;;;20.93;34.44
47883;BME280;37739;50.350;7.578;2023-06-14T01:20:33;99414.63;;;21.04;34.10
47883;BME280;37739;50.350;7.578;2023-06-14T01:23:03;99416.16;;;21.18;33.96
47883;BME280;37739;50.350;7.578;2023-06-14T01:25:29;99402.97;;;21.31;33.48
47883;BME280;37739;50.350;7.578;2023-06-14T01:28:00;99419.38;;;21.41;33.61
47883;BME280;37739;50.350;7.578;2023-06-14T01:30:26;99411.56;;;21.36;33.38
47883;BME280;37739;50.350;7.578;2023-06-14T01:32:53;99415.00;;;21.40;33.52
47883;BME280;37739;50.350;7.578;2023-06-14T01:35:20;99409.44;;;20.97;34.42
47883;BME280;37739;50.350;7.578;2023-06-14T01:37:47;99413.69;;;21.06;34.33
47883;BME280;37739;50.350;7.578;2023-06-14T01:40:18;99408.56;;;21.00;34.39
47883;BME280;37739;50.350;7.578;2023-06-14T01:42:46;99416.34;;;21.03;34.20
47883;BME280;37739;50.350;7.578;2023-06-14T01:45:12;99411.97;;;21.05;34.48
47883;BME280;37739;50.350;7.578;2023-06-14T01:47:38;99415.31;;;21.15;34.26
47883;BME280;37739;50.350;7.578;2023-06-14T01:50:04;99418.78;;;21.17;34.03
47883;BME280;37739;50.350;7.578;2023-06-14T01:52:29;99417.16;;;21.08;34.15
47883;BME280;37739;50.350;7.578;2023-06-14T01:54:55;99420.88;;;20.86;34.84
47883;BME280;37739;50.350;7.578;2023-06-14T01:57:21;99416.47;;;20.92;34.79
47883;BME280;37739;50.350;7.578;2023-06-14T01:59:47;99413.81;;;20.95;34.71
47883;BME280;37739;50.350;7.578;2023-06-14T02:02:15;99417.75;;;20.48;35.82
47883;BME280;37739;50.350;7.578;2023-06-14T02:04:41;99415.06;;;20.57;36.18
47883;BME280;37739;50.350;7.578;2023-06-14T02:07:09;99417.06;;;20.31;36.36
47883;BME280;37739;50.350;7.578;2023-06-14T02:09:35;99413.56;;;20.33;36.08
47883;BME280;37739;50.350;7.578;2023-06-14T02:12:02;99424.72;;;20.46;35.95
47883;BME280;37739;50.350;7.578;2023-06-14T02:14:30;99415.13;;;20.51;35.99
47883;BME280;37739;50.350;7.578;2023-06-14T02:16:55;99422.00;;;20.58;35.50
47883;BME280;37739;50.350;7.578;2023-06-14T02:19:21;99420.28;;;20.57;35.36
47883;BME280;37739;50.350;7.578;2023-06-14T02:21:47;99416.97;;;20.40;35.70
47883;BME280;37739;50.350;7.578;2023-06-14T02:24:13;99421.38;;;20.33;35.78
47883;BME280;37739;50.350;7.578;2023-06-14T02:26:38;99421.22;;;20.47;35.58
47883;BME280;37739;50.350;7.578;2023-06-14T02:29:09;99424.81;;;20.37;35.78
47883;BME280;37739;50.350;7.578;2023-06-14T02:31:38;99427.41;;;20.40;36.10
47883;BME280;37739;50.350;7.578;2023-06-14T02:34:06;99417.00;;;20.34;36.79
47883;BME280;37739;50.350;7.578;2023-06-14T02:36:37;99427.47;;;20.31;37.68
47883;BME280;37739;50.350;7.578;2023-06-14T02:39:07;99430.38;;;19.94;38.30
47883;BME280;37739;50.350;7.578;2023-06-14T02:41:35;99425.97;;;20.00;37.77
47883;BME280;37739;50.350;7.578;2023-06-14T02:44:00;99432.88;;;20.03;38.05
47883;BME280;37739;50.350;7.578;2023-06-14T02:46:26;99426.81;;;20.01;38.56
47883;BME280;37739;50.350;7.578;2023-06-14T02:48:51;99428.63;;;19.96;38.91
47883;BME280;37739;50.350;7.578;2023-06-14T02:51:19;99424.31;;;19.89;38.99
47883;BME280;37739;50.350;7.578;2023-06-14T02:53:44;99430.44;;;19.86;39.29
47883;BME280;37739;50.350;7.578;2023-06-14T02:56:10;99433.88;;;19.85;39.08
47883;BME280;37739;50.350;7.578;2023-06-14T02:58:37;99435.63;;;19.83;39.22
47883;BME280;37739;50.350;7.578;2023-06-14T03:01:08;99434.78;;;19.79;39.64
47883;BME280;37739;50.350;7.578;2023-06-14T03:03:35;99438.28;;;19.78;38.93
47883;BME280;37739;50.350;7.578;2023-06-14T03:06:00;99439.16;;;19.71;39.21
47883;BME280;37739;50.350;7.578;2023-06-14T03:08:32;99439.16;;;19.71;39.29
47883;BME280;37739;50.350;7.578;2023-06-14T03:11:03;99438.28;;;19.74;39.41
47883;BME280;37739;50.350;7.578;2023-06-14T03:13:30;99445.34;;;19.52;39.13
47883;BME280;37739;50.350;7.578;2023-06-14T03:15:57;99440.09;;;19.59;38.91
47883;BME280;37739;50.350;7.578;2023-06-14T03:18:25;99448.72;;;19.66;38.77
47883;BME280;37739;50.350;7.578;2023-06-14T03:20:54;99446.97;;;19.68;39.09
47883;BME280;37739;50.350;7.578;2023-06-14T03:23:22;99456.53;;;19.68;38.83
47883;BME280;37739;50.350;7.578;2023-06-14T03:25:47;99453.06;;;19.67;38.51
47883;BME280;37739;50.350;7.578;2023-06-14T03:28:13;99459.13;;;19.66;38.33
47883;BME280;37739;50.350;7.578;2023-06-14T03:30:38;99461.72;;;19.65;38.48
47883;BME280;37739;50.350;7.578;2023-06-14T03:33:03;99457.41;;;19.59;38.31
47883;BME280;37739;50.350;7.578;2023-06-14T03:35:29;99469.59;;;19.52;38.49
47883;BME280;37739;50.350;7.578;2023-06-14T03:37:55;99460.91;;;19.58;38.42
47883;BME280;37739;50.350;7.578;2023-06-14T03:40:20;99477.41;;;19.55;38.31
47883;BME280;37739;50.350;7.578;2023-06-14T03:42:48;99467.88;;;19.56;38.26
47883;BME280;37739;50.350;7.578;2023-06-14T03:45:16;99483.47;;;19.57;38.90
47883;BME280;37739;50.350;7.578;2023-06-14T03:47:44;99482.59;;;19.58;38.25
47883;BME280;37739;50.350;7.578;2023-06-14T03:50:10;99485.22;;;19.54;38.33
47883;BME280;37739;50.350;7.578;2023-06-14T03:52:36;99493.97;;;19.33;38.74
47883;BME280;37739;50.350;7.578;2023-06-14T03:55:10;99494.81;;;19.41;38.82
47883;BME280;37739;50.350;7.578;2023-06-14T03:57:38;99491.34;;;19.37;38.58
47883;BME280;37739;50.350;7.578;2023-06-14T04:00:03;99496.47;;;19.51;38.32
47883;BME280;37739;50.350;7.578;2023-06-14T04:02:33;99502.56;;;19.49;38.73
47883;BME280;37739;50.350;7.578;2023-06-14T04:05:02;99500.88;;;19.40;38.82
47883;BME280;37739;50.350;7.578;2023-06-14T04:07:29;99507.78;;;19.46;38.95
47883;BME280;37739;50.350;7.578;2023-06-14T04:09:57;99508.66;;;19.46;39.14
47883;BME280;37739;50.350;7.578;2023-06-14T04:12:22;99508.66;;;19.48;39.04
47883;BME280;37739;50.350;7.578;2023-06-14T04:14:53;99512.13;;;19.47;39.52
47883;BME280;37739;50.350;7.578;2023-06-14T04:17:20;99510.41;;;19.44;39.21
47883;BME280;37739;50.350;7.578;2023-06-14T04:19:46;99519.94;;;19.45;39.57
47883;BME280;37739;50.350;7.578;2023-06-14T04:22:12;99524.25;;;19.49;39.33
47883;BME280;37739;50.350;7.578;2023-06-14T04:24:38;99520.78;;;19.52;39.62
47883;BME280;37739;50.350;7.578;2023-06-14T04:27:03;99518.19;;;19.52;39.20
47883;BME280;37739;50.350;7.578;2023-06-14T04:29:36;99519.03;;;19.51;39.51
47883;BME280;37739;50.350;7.578;2023-06-14T04:32:02;99520.81;;;19.39;39.88
47883;BME280;37739;50.350;7.578;2023-06-14T04:34:28;99523.41;;;19.41;40.09
47883;BME280;37739;50.350;7.578;2023-06-14T04:36:57;99527.72;;;19.47;40.29
47883;BME280;37739;50.350;7.578;2023-06-14T04:39:23;99522.53;;;19.50;40.25
47883;BME280;37739;50.350;7.578;2023-06-14T04:41:49;99526.97;;;19.17;41.34
47883;BME280;37739;50.350;7.578;2023-06-14T04:44:20;99537.34;;;19.32;40.72
47883;BME280;37739;50.350;7.578;2023-06-14T04:46:46;99524.28;;;19.43;41.14
47883;BME280;37739;50.350;7.578;2023-06-14T04:49:12;99537.34;;;19.32;42.44
47883;BME280;37739;50.350;7.578;2023-06-14T04:51:39;99540.72;;;19.43;41.38
47883;BME280;37739;50.350;7.578;2023-06-14T04:54:05;99540.72;;;19.56;40.89
47883;BME280;37739;50.350;7.578;2023-06-14T04:56:31;99537.28;;;19.46;41.12
47883;BME280;37739;50.350;7.578;2023-06-14T04:58:58;99540.75;;;19.47;41.32
47883;BME280;37739;50.350;7.578;2023-06-14T05:01:24;99536.31;;;19.69;40.35
47883;BME280;37739;50.350;7.578;2023-06-14T05:03:49;99538.06;;;19.74;41.07
47883;BME280;37739;50.350;7.578;2023-06-14T05:06:15;99539.78;;;19.75;40.77
47883;BME280;37739;50.350;7.578;2023-06-14T05:08:43;99538.03;;;19.79;40.96
47883;BME280;37739;50.350;7.578;2023-06-14T05:11:13;99538.00;;;19.82;41.57
47883;BME280;37739;50.350;7.578;2023-06-14T05:13:42;99540.66;;;19.68;41.61
47883;BME280;37739;50.350;7.578;2023-06-14T05:16:07;99544.09;;;19.70;41.60
47883;BME280;37739;50.350;7.578;2023-06-14T05:18:32;99545.88;;;19.64;41.74
47883;BME280;37739;50.350;7.578;2023-06-14T05:21:00;99552.81;;;19.75;41.53
47883;BME280;37739;50.350;7.578;2023-06-14T05:23:28;99554.50;;;19.84;41.90
47883;BME280;37739;50.350;7.578;2023-06-14T05:25:56;99553.66;;;19.70;43.49
47883;BME280;37739;50.350;7.578;2023-06-14T05:28:24;99549.31;;;19.70;41.85
47883;BME280;37739;50.350;7.578;2023-06-14T05:30:56;99557.22;;;19.47;43.00
47883;BME280;37739;50.350;7.578;2023-06-14T05:33:23;99561.44;;;19.87;42.23
47883;BME280;37739;50.350;7.578;2023-06-14T05:35:50;99546.50;;;20.16;41.38
47883;BME280;37739;50.350;7.578;2023-06-14T05:38:16;99555.13;;;20.31;41.32
47883;BME280;37739;50.350;7.578;2023-06-14T05:40:41;99553.47;;;20.19;41.53
47883;BME280;37739;50.350;7.578;2023-06-14T05:43:06;99564.81;;;20.01;41.73
47883;BME280;37739;50.350;7.578;2023-06-14T05:45:34;99556.97;;;20.12;41.30
47883;BME280;37739;50.350;7.578;2023-06-14T05:47:59;99557.81;;;20.14;41.20
47883;BME280;37739;50.350;7.578;2023-06-14T05:50:24;99564.69;;;20.27;40.78
47883;BME280;37739;50.350;7.578;2023-06-14T05:52:50;99570.59;;;20.49;40.46
47883;BME280;37739;50.350;7.578;2023-06-14T05:55:16;99568.91;;;20.47;40.12
47883;BME280;37739;50.350;7.578;2023-06-14T05:57:44;99568.94;;;20.39;40.06
47883;BME280;37739;50.350;7.578;2023-06-14T06:00:12;99568.09;;;20.40;39.69
47883;BME280;37739;50.350;7.578;2023-06-14T06:02:44;99564.72;;;20.19;40.30
47883;BME280;37739;50.350;7.578;2023-06-14T06:05:13;99564.59;;;20.38;39.71
47883;BME280;37739;50.350;7.578;2023-06-14T06:07:41;99574.06;;;20.51;39.78
47883;BME280;37739;50.350;7.578;2023-06-14T06:10:10;99577.50;;;20.56;39.48
47883;BME280;37739;50.350;7.578;2023-06-14T06:12:38;99574.06;;;20.56;39.35
47883;BME280;37739;50.350;7.578;2023-06-14T06:15:04;99578.38;;;20.62;39.04
47883;BME280;37739;50.350;7.578;2023-06-14T06:17:32;99580.94;;;20.69;39.19
47883;BME280;37739;50.350;7.578;2023-06-14T06:19:57;99583.63;;;20.52;39.39
47883;BME280;37739;50.350;7.578;2023-06-14T06:22:22;99587.06;;;20.62;39.50
47883;BME280;37739;50.350;7.578;2023-06-14T06:24:50;99591.31;;;20.74;39.52
47883;BME280;37739;50.350;7.578;2023-06-14T06:27:15;99584.25;;;20.87;38.98
47883;BME280;37739;50.350;7.578;2023-06-14T06:29:44;99583.41;;;20.83;39.42
47883;BME280;37739;50.350;7.578;2023-06-14T06:32:09;99588.84;;;20.51;40.06
47883;BME280;37739;50.350;7.578;2023-06-14T06:34:37;99590.53;;;20.55;39.64
47883;BME280;37739;50.350;7.578;2023-06-14T06:37:05;99591.34;;;20.69;39.19
47883;BME280;37739;50.350;7.578;2023-06-14T06:39:33;99597.44;;;20.68;39.15
47883;BME280;37739;50.350;7.578;2023-06-14T06:42:01;99594.91;;;20.51;39.51
47883;BME280;37739;50.350;7.578;2023-06-14T06:44:26;99603.72;;;20.36;39.64
47883;BME280;37739;50.350;7.578;2023-06-14T06:46:56;99607.19;;;20.34;40.09
47883;BME280;37739;50.350;7.578;2023-06-14T06:49:26;99597.44;;;20.67;39.62
47883;BME280;37739;50.350;7.578;2023-06-14T06:52:03;99604.16;;;20.97;39.21
47883;BME280;37739;50.350;7.578;2023-06-14T06:54:29;99612.84;;;20.97;39.39
47883;BME280;37739;50.350;7.578;2023-06-14T06:56:54;99610.16;;;21.08;39.20
47883;BME280;37739;50.350;7.578;2023-06-14T06:59:20;99609.09;;;21.29;38.73
47883;BME280;37739;50.350;7.578;2023-06-14T07:01:46;99611.56;;;21.43;38.10
47883;BME280;37739;50.350;7.578;2023-06-14T07:04:12;99615.97;;;21.36;38.65
47883;BME280;37739;50.350;7.578;2023-06-14T07:06:37;99621.09;;;21.47;38.59
47883;BME280;37739;50.350;7.578;2023-06-14T07:09:05;99621.81;;;21.63;37.86
47883;BME280;37739;50.350;7.578;2023-06-14T07:11:33;99614.69;;;21.77;37.85
47883;BME280;37739;50.350;7.578;2023-06-14T07:13:59;99617.66;;;21.44;37.90
47883;BME280;37739;50.350;7.578;2023-06-14T07:16:24;99619.97;;;21.73;37.81
47883;BME280;37739;50.350;7.578;2023-06-14T07:18:52;99624.38;;;21.68;37.75
47883;BME280;37739;50.350;7.578;2023-06-14T07:21:18;99625.38;;;21.58;37.74
47883;BME280;37739;50.350;7.578;2023-06-14T07:23:43;99621.84;;;21.62;37.31
47883;BME280;37739;50.350;7.578;2023-06-14T07:26:11;99618.16;;;21.76;37.27
47883;BME280;37739;50.350;7.578;2023-06-14T07:28:38;99628.06;;;21.50;37.49
47883;BME280;37739;50.350;7.578;2023-06-14T07:31:03;99619.44;;;21.38;37.60
47883;BME280;37739;50.350;7.578;2023-06-14T07:33:29;99628.84;;;21.55;38.19
47883;BME280;37739;50.350;7.578;2023-06-14T07:35:57;99625.41;;;21.51;37.53
47883;BME280;37739;50.350;7.578;2023-06-14T07:38:22;99627.22;;;21.46;37.40
47883;BME280;37739;50.350;7.578;2023-06-14T07:40:47;99628.75;;;21.67;37.44
47883;BME280;37739;50.350;7.578;2023-06-14T07:43:15;99633.81;;;21.78;37.36
47883;BME280;37739;50.350;7.578;2023-06-14T07:45:40;99626.66;;;21.94;36.81
47883;BME280;37739;50.350;7.578;2023-06-14T07:48:09;99628.13;;;22.16;36.99
47883;BME280;37739;50.350;7.578;2023-06-14T07:50:34;99633.59;;;21.98;36.72
47883;BME280;37739;50.350;7.578;2023-06-14T07:53:00;99628.09;;;22.20;36.61
47883;BME280;37739;50.350;7.578;2023-06-14T07:55:27;99625.13;;;22.47;36.03
47883;BME280;37739;50.350;7.578;2023-06-14T07:57:53;99630.69;;;22.21;37.22
47883;BME280;37739;50.350;7.578;2023-06-14T08:00:19;99627.94;;;22.33;35.98
47883;BME280;37739;50.350;7.578;2023-06-14T08:02:46;99627.06;;;22.34;36.05
47883;BME280;37739;50.350;7.578;2023-06-14T08:05:13;99629.69;;;22.33;35.78
47883;BME280;37739;50.350;7.578;2023-06-14T08:07:41;99629.81;;;22.22;36.21
47883;BME280;37739;50.350;7.578;2023-06-14T08:10:07;99627.84;;;22.40;35.67
47883;BME280;37739;50.350;7.578;2023-06-14T08:12:33;99632.47;;;22.81;35.28
47883;BME280;37739;50.350;7.578;2023-06-14T08:14:59;99633.31;;;22.83;34.68
47883;BME280;37739;50.350;7.578;2023-06-14T08:17:25;99633.13;;;22.94;34.68
47883;BME280;37739;50.350;7.578;2023-06-14T08:19:50;99636.53;;;22.99;34.76
47883;BME280;37739;50.350;7.578;2023-06-14T08:22:22;99633.78;;;23.10;35.24
47883;BME280;37739;50.350;7.578;2023-06-14T08:24:47;99633.59;;;23.21;34.85
47883;BME280;37739;50.350;7.578;2023-06-14T08:27:12;99626.53;;;23.24;34.63
47883;BME280;37739;50.350;7.578;2023-06-14T08:29:40;99630.25;;;23.12;33.89
47883;BME280;37739;50.350;7.578;2023-06-14T08:32:06;99631.88;;;23.20;33.97
47883;BME280;37739;50.350;7.578;2023-06-14T08:34:32;99620.81;;;23.01;33.07
47883;BME280;37739;50.350;7.578;2023-06-14T08:37:01;99624.19;;;23.10;32.83
47883;BME280;37739;50.350;7.578;2023-06-14T08:39:30;99626.50;;;23.29;32.99
47883;BME280;37739;50.350;7.578;2023-06-14T08:41:58;99628.22;;;23.28;33.07
47883;BME280;37739;50.350;7.578;2023-06-14T08:44:28;99616.22;;;23.17;33.17
47883;BME280;37739;50.350;7.578;2023-06-14T08:46:55;99622.09;;;23.29;33.26
47883;BME280;37739;50.350;7.578;2023-06-14T08:49:22;99622.09;;;23.29;33.44
47883;BME280;37739;50.350;7.578;2023-06-14T08:51:50;99621.69;;;23.04;33.69
47883;BME280;37739;50.350;7.578;2023-06-14T08:54:20;99618.25;;;23.49;33.29
47883;BME280;37739;50.350;7.578;2023-06-14T08:56:46;99623.66;;;23.86;33.21
47883;BME280;37739;50.350;7.578;2023-06-14T08:59:15;99624.94;;;23.65;33.37
47883;BME280;37739;50.350;7.578;2023-06-14T09:01:43;99631.66;;;23.79;32.58
47883;BME280;37739;50.350;7.578;2023-06-14T09:04:12;99618.66;;;23.74;33.30
47883;BME280;37739;50.350;7.578;2023-06-14T09:06:38;99620.09;;;23.90;33.11
47883;BME280;37739;50.350;7.578;2023-06-14T09:09:05;99629.59;;;23.96;33.42
47883;BME280;37739;50.350;7.578;2023-06-14T09:11:35;99627.75;;;24.00;32.80
47883;BME280;37739;50.350;7.578;2023-06-14T09:14:00;99623.97;;;24.15;31.95
47883;BME280;37739;50.350;7.578;2023-06-14T09:16:25;99623.28;;;24.45;31.52
47883;BME280;37739;50.350;7.578;2023-06-14T09:18:51;99630.38;;;24.81;31.46
47883;BME280;37739;50.350;7.578;2023-06-14T09:21:17;99620.56;;;24.50;31.01
47883;BME280;37739;50.350;7.578;2023-06-14T09:23:46;99627.97;;;24.31;31.99
47883;BME280;37739;50.350;7.578;2023-06-14T09:26:16;99625.03;;;24.45;31.01
47883;BME280;37739;50.350;7.578;2023-06-14T09:28:45;99626.50;;;24.60;30.79
47883;BME280;37739;50.350;7.578;2023-06-14T09:31:12;99634.75;;;24.79;30.74
47883;BME280;37739;50.350;7.578;2023-06-14T09:33:38;99629.16;;;24.94;30.93
47883;BME280;37739;50.350;7.578;2023-06-14T09:36:15;99635.13;;;24.63;31.20
47883;BME280;37739;50.350;7.578;2023-06-14T09:38:44;99625.25;;;25.11;30.49
47883;BME280;37739;50.350;7.578;2023-06-14T09:41:16;99638.38;;;25.11;31.19
47883;BME280;37739;50.350;7.578;2023-06-14T09:43:47;99629.66;;;24.73;30.00
47883;BME280;37739;50.350;7.578;2023-06-14T09:46:13;99629.31;;;24.88;30.40
47883;BME280;37739;50.350;7.578;2023-06-14T09:48:38;99639.38;;;25.41;29.91
47883;BME280;37739;50.350;7.578;2023-06-14T09:51:10;99636.59;;;25.47;29.93
47883;BME280;37739;50.350;7.578;2023-06-14T09:53:41;99644.13;;;25.59;29.98
47883;BME280;37739;50.350;7.578;2023-06-14T09:56:07;99639.44;;;25.71;30.05
47883;BME280;37739;50.350;7.578;2023-06-14T09:58:39;99640.75;;;25.87;30.20
47883;BME280;37739;50.350;7.578;2023-06-14T10:01:08;99628.81;;;25.08;30.52
47883;BME280;37739;50.350;7.578;2023-06-14T10:03:34;99635.09;;;25.02;30.94
47883;BME280;37739;50.350;7.578;2023-06-14T10:06:03;99636.41;;;25.19;30.70
47883;BME280;37739;50.350;7.578;2023-06-14T10:08:35;99635.47;;;24.87;30.69
47883;BME280;37739;50.350;7.578;2023-06-14T10:11:02;99630.41;;;25.48;30.68
47883;BME280;37739;50.350;7.578;2023-06-14T10:13:31;99635.47;;;25.56;30.74
47883;BME280;37739;50.350;7.578;2023-06-14T10:16:09;99643.63;;;25.78;30.83
47883;BME280;37739;50.350;7.578;2023-06-14T10:19:07;99630.56;;;25.75;30.27
47883;BME280;37739;50.350;7.578;2023-06-14T10:24:16;99623.53;;;26.36;30.04
47883;BME280;37739;50.350;7.578;2023-06-14T10:26:54;99627.31;;;25.98;29.62
47883;BME280;37739;50.350;7.578;2023-06-14T10:29:24;99639.19;;;26.11;30.60
47883;BME280;37739;50.350;7.578;2023-06-14T10:31:53;99630.88;;;26.55;29.92
47883;BME280;37739;50.350;7.578;2023-06-14T10:34:27;99633.16;;;26.94;28.82
47883;BME280;37739;50.350;7.578;2023-06-14T10:37:14;99631.19;;;26.16;29.66
47883;BME280;37739;50.350;7.578;2023-06-14T10:42:06;99635.72;;;26.69;29.78
47883;BME280;37739;50.350;7.578;2023-06-14T10:47:07;99637.91;;;26.54;29.23
47883;BME280;37739;50.350;7.578;2023-06-14T10:49:44;99644.91;;;27.10;28.29
47883;BME280;37739;50.350;7.578;2023-06-14T10:52:22;99643.72;;;27.19;28.22
47883;BME280;37739;50.350;7.578;2023-06-14T10:55:06;99635.44;;;26.78;28.42
47883;BME280;37739;50.350;7.578;2023-06-14T10:57:39;99640.69;;;26.78;28.33
47883;BME280;37739;50.350;7.578;2023-06-14T11:00:08;99644.94;;;26.54;28.94
47883;BME280;37739;50.350;7.578;2023-06-14T11:06:07;99648.34;;;27.12;27.75
47883;BME280;37739;50.350;7.578;2023-06-14T11:11:25;99655.66;;;26.18;29.02
47883;BME280;37739;50.350;7.578;2023-06-14T11:13:54;99644.19;;;26.78;28.01
47883;BME280;37739;50.350;7.578;2023-06-14T11:16:25;99643.91;;;27.41;27.14
47883;BME280;37739;50.350;7.578;2023-06-14T11:18:53;99651.78;;;27.14;28.27
47883;BME280;37739;50.350;7.578;2023-06-14T11:21:19;99655.16;;;26.93;27.87
47883;BME280;37739;50.350;7.578;2023-06-14T11:23:53;99651.84;;;27.13;28.31
47883;BME280;37739;50.350;7.578;2023-06-14T11:26:30;99656.47;;;27.06;28.77
47883;BME280;37739;50.350;7.578;2023-06-14T11:29:00;99656.31;;;27.11;27.96
47883;BME280;37739;50.350;7.578;2023-06-14T11:31:27;99657.38;;;27.05;27.57
47883;BME280;37739;50.350;7.578;2023-06-14T11:34:00;99658.19;;;27.34;27.70
47883;BME280;37739;50.350;7.578;2023-06-14T11:36:27;99658.28;;;27.31;27.30
47883;BME280;37739;50.350;7.578;2023-06-14T11:38:59;99657.69;;;27.21;27.82
47883;BME280;37739;50.350;7.578;2023-06-14T11:41:24;99662.38;;;26.86;27.53
47883;BME280;37739;50.350;7.578;2023-06-14T11:43:55;99666.41;;;26.40;28.25
47883;BME280;37739;50.350;7.578;2023-06-14T11:46:27;99650.72;;;27.20;27.26
47883;BME280;37739;50.350;7.578;2023-06-14T11:48:55;99651.03;;;27.11;27.61
47883;BME280;37739;50.350;7.578;2023-06-14T11:51:23;99651.63;;;27.19;27.97
47883;BME280;37739;50.350;7.578;2023-06-14T11:53:48;99648.06;;;26.95;27.89
47883;BME280;37739;50.350;7.578;2023-06-14T11:56:14;99658.84;;;26.87;28.49
47883;BME280;37739;50.350;7.578;2023-06-14T11:58:44;99652.66;;;27.67;26.95
47883;BME280;37739;50.350;7.578;2023-06-14T12:01:14;99653.03;;;28.06;26.73
47883;BME280;37739;50.350;7.578;2023-06-14T12:03:47;99655.44;;;27.87;26.46
47883;BME280;37739;50.350;7.578;2023-06-14T12:06:25;99652.50;;;28.20;26.62
47883;BME280;37739;50.350;7.578;2023-06-14T12:08:55;99646.25;;;28.68;26.30
47883;BME280;37739;50.350;7.578;2023-06-14T12:11:21;99654.81;;;28.95;26.01
47883;BME280;37739;50.350;7.578;2023-06-14T12:13:48;99651.88;;;29.03;25.26
47883;BME280;37739;50.350;7.578;2023-06-14T12:16:18;99648.44;;;28.57;25.71
47883;BME280;37739;50.350;7.578;2023-06-14T12:18:48;99647.81;;;28.27;26.47
47883;BME280;37739;50.350;7.578;2023-06-14T12:21:16;99646.84;;;28.06;27.02
47883;BME280;37739;50.350;7.578;2023-06-14T12:23:46;99638.41;;;28.43;25.97
47883;BME280;37739;50.350;7.578;2023-06-14T12:26:22;99654.56;;;27.87;27.02
47883;BME280;37739;50.350;7.578;2023-06-14T12:28:52;99643.25;;;28.77;25.94
47883;BME280;37739;50.350;7.578;2023-06-14T12:31:20;99652.38;;;27.74;26.58
47883;BME280;37739;50.350;7.578;2023-06-14T12:33:46;99654.84;;;27.54;26.87
47883;BME280;37739;50.350;7.578;2023-06-14T12:36:16;99659.72;;;27.41;27.10
47883;BME280;37739;50.350;7.578;2023-06-14T12:38:42;99655.31;;;27.13;27.41
47883;BME280;37739;50.350;7.578;2023-06-14T12:41:10;99657.59;;;27.26;27.21
47883;BME280;37739;50.350;7.578;2023-06-14T12:43:38;99650.59;;;27.25;25.91
47883;BME280;37739;50.350;7.578;2023-06-14T12:46:03;99659.03;;;27.59;26.62
47883;BME280;37739;50.350;7.578;2023-06-14T12:48:30;99651.09;;;27.36;27.43
47883;BME280;37739;50.350;7.578;2023-06-14T12:50:56;99650.44;;;28.05;27.05
47883;BME280;37739;50.350;7.578;2023-06-14T12:53:22;99668.09;;;28.48;26.15
47883;BME280;37739;50.350;7.578;2023-06-14T12:55:48;99666.53;;;28.20;26.29
47883;BME280;37739;50.350;7.578;2023-06-14T12:58:13;99660.19;;;28.03;26.36
47883;BME280;37739;50.350;7.578;2023-06-14T13:00:39;99663.94;;;28.66;25.53
47883;BME280;37739;50.350;7.578;2023-06-14T13:03:05;99664.75;;;29.11;25.42
47883;BME280;37739;50.350;7.578;2023-06-14T13:05:30;99663.09;;;29.08;25.16
47883;BME280;37739;50.350;7.578;2023-06-14T13:07:58;99662.44;;;29.46;24.47
47883;BME280;37739;50.350;7.578;2023-06-14T13:10:23;99664.94;;;29.90;24.36
47883;BME280;37739;50.350;7.578;2023-06-14T13:12:49;99662.66;;;30.01;24.35
47883;BME280;37739;50.350;7.578;2023-06-14T13:15:17;99657.56;;;30.15;23.51
47883;BME280;37739;50.350;7.578;2023-06-14T13:17:42;99667.41;;;28.89;25.25
47883;BME280;37739;50.350;7.578;2023-06-14T13:20:11;99666.63;;;27.69;26.59
47883;BME280;37739;50.350;7.578;2023-06-14T13:22:37;99661.03;;;28.72;25.00
47883;BME280;37739;50.350;7.578;2023-06-14T13:25:07;99656.78;;;29.33;24.41